sensor_id;sensor_type;location;lat;lon;timestamp;temperature;humidity
5697;DHT22;2873;50.966;7.210;2023-07-20T00:01:35;20.90;99.90
5697;DHT22;2873;50.966;7.210;2023-07-20T00:04:01;20.90;99.90
5697;DHT22;2873;50.966;7.210;2023-07-20T00:06:26;20.80;99.90
5697;DHT22;2873;50.966;7.210;2023-07-20T00:08:54;20.80;99.90
5697;DHT22;2873;50.966;7.210;2023-07-20T00:11:20;20.80;99.90
5697;DHT22;2873;50.966;7.210;2023-07-20T00:13:45;20.80;99.90
5697;DHT22;2873;50.966;7.210;2023-07-20T00:16:11;20.80;99.90
5697;DHT22;2873;50.966;7.210;2023-07-20T00:18:36;20.70;99.90
5697;DHT22;2873;50.966;7.210;2023-07-20T00:21:02;20.70;99.90
5697;DHT22;2873;50.966;7.210;2023-07-20T00:23:28;20.60;99.90
5697;DHT22;2873;50.966;7.210;2023-07-20T00:25:53;20.60;99.90
5697;DHT22;2873;50.966;7.210;2023-07-20T00:28:19;20.60;99.90
5697;DHT22;2873;50.966;7.210;2023-07-20T00:30:45;20.60;99.90
5697;DHT22;2873;50.966;7.210;2023-07-20T00:33:11;20.50;99.90
5697;DHT22;2873;50.966;7.210;2023-07-20T00:35:38;20.60;99.90
5697;DHT22;2873;50.966;7.210;2023-07-20T00:38:04;20.50;99.90
5697;DHT22;2873;50.966;7.210;2023-07-20T00:40:39;20.50;99.90
5697;DHT22;2873;50.966;7.210;2023-07-20T00:43:05;20.50;99.90
5697;DHT22;2873;50.966;7.210;2023-07-20T00:45:31;20.50;99.90
5697;DHT22;2873;50.966;7.210;2023-07-20T00:47:57;20.50;99.90
5697;DHT22;2873;50.966;7.210;2023-07-20T00:50:24;20.50;99.90
5697;DHT22;2873;50.966;7.210;2023-07-20T00:52:51;20.40;99.90
5697;DHT22;2873;50.966;7.210;2023-07-20T00:55:16;20.40;99.90
5697;DHT22;2873;50.966;7.210;2023-07-20T00:57:43;20.40;99.90
5697;DHT22;2873;50.966;7.210;2023-07-20T01:00:09;20.40;99.90
5697;DHT22;2873;50.966;7.210;2023-07-20T01:02:34;20.40;99.90
5697;DHT22;2873;50.966;7.210;2023-07-20T01:05:00;20.30;99.90
5697;DHT22;2873;50.966;7.210;2023-07-20T01:07:32;20.30;99.90
5697;DHT22;2873;50.966;7.210;2023-07-20T01:10:12;20.30;99.90
5697;DHT22;2873;50.966;7.210;2023-07-20T01:12:43;20.30;99.90
5697;DHT22;2873;50.966;7.210;2023-07-20T01:15:09;20.20;99.90
5697;DHT22;2873;50.966;7.210;2023-07-20T01:17:35;20.20;99.90
5697;DHT22;2873;50.966;7.210;2023-07-20T01:20:01;20.20;99.90
5697;DHT22;2873;50.966;7.210;2023-07-20T01:22:39;20.20;99.90
5697;DHT22;2873;50.966;7.210;2023-07-20T01:33:17;20.20;99.90
5697;DHT22;2873;50.966;7.210;2023-07-20T01:35:48;20.20;99.90
5697;DHT22;2873;50.966;7.210;2023-07-20T01:38:15;20.20;99.90
5697;DHT22;2873;50.966;7.210;2023-07-20T01:40:42;20.20;99.90
5697;DHT22;2873;50.966;7.210;2023-07-20T01:43:07;20.00;99.90
5697;DHT22;2873;50.966;7.210;2023-07-20T01:45:33;20.10;99.90
5697;DHT22;2873;50.966;7.210;2023-07-20T01:47:58;20.10;99.90
5697;DHT22;2873;50.966;7.210;2023-07-20T01:50:24;20.10;99.90
5697;DHT22;2873;50.966;7.210;2023-07-20T01:52:49;20.20;99.90
5697;DHT22;2873;50.966;7.210;2023-07-20T01:55:15;20.20;99.90
5697;DHT22;2873;50.966;7.210;2023-07-20T01:57:40;20.10;99.90
5697;DHT22;2873;50.966;7.210;2023-07-20T02:00:06;20.10;99.90
5697;DHT22;2873;50.966;7.210;2023-07-20T02:02:34;20.00;99.90
5697;DHT22;2873;50.966;7.210;2023-07-20T02:04:59;20.00;99.90
5697;DHT22;2873;50.966;7.210;2023-07-20T02:07:25;19.90;99.90
5697;DHT22;2873;50.966;7.210;2023-07-20T02:09:51;19.90;99.90
5697;DHT22;2873;50.966;7.210;2023-07-20T02:12:16;19.80;99.90
5697;DHT22;2873;50.966;7.210;2023-07-20T02:14:42;19.70;99.90
5697;DHT22;2873;50.966;7.210;2023-07-20T02:17:08;19.70;99.90
5697;DHT22;2873;50.966;7.210;2023-07-20T02:19:36;19.70;99.90
5697;DHT22;2873;50.966;7.210;2023-07-20T02:22:02;19.70;99.90
5697;DHT22;2873;50.966;7.210;2023-07-20T02:24:27;19.70;99.90
5697;DHT22;2873;50.966;7.210;2023-07-20T02:26:53;19.70;99.90
5697;DHT22;2873;50.966;7.210;2023-07-20T02:29:18;19.80;99.90
5697;DHT22;2873;50.966;7.210;2023-07-20T02:31:44;19.80;99.90
5697;DHT22;2873;50.966;7.210;2023-07-20T02:34:09;19.80;99.90
5697;DHT22;2873;50.966;7.210;2023-07-20T02:36:35;19.90;99.90
5697;DHT22;2873;50.966;7.210;2023-07-20T02:39:01;19.90;99.90
5697;DHT22;2873;50.966;7.210;2023-07-20T02:41:30;19.90;99.90
5697;DHT22;2873;50.966;7.210;2023-07-20T02:43:55;19.90;99.90
5697;DHT22;2873;50.966;7.210;2023-07-20T02:46:22;19.80;99.90
5697;DHT22;2873;50.966;7.210;2023-07-20T02:48:47;19.90;99.90
5697;DHT22;2873;50.966;7.210;2023-07-20T02:51:13;19.80;99.90
5697;DHT22;2873;50.966;7.210;2023-07-20T02:53:38;19.80;99.90
5697;DHT22;2873;50.966;7.210;2023-07-20T02:56:04;19.80;99.90
5697;DHT22;2873;50.966;7.210;2023-07-20T02:58:29;19.80;99.90
5697;DHT22;2873;50.966;7.210;2023-07-20T03:00:54;19.70;99.90
5697;DHT22;2873;50.966;7.210;2023-07-20T03:03:20;19.70;99.90
5697;DHT22;2873;50.966;7.210;2023-07-20T03:05:46;19.80;99.90
5697;DHT22;2873;50.966;7.210;2023-07-20T03:08:11;19.70;99.90
5697;DHT22;2873;50.966;7.210;2023-07-20T03:10:40;19.60;99.90
5697;DHT22;2873;50.966;7.210;2023-07-20T03:13:07;19.60;99.90
5697;DHT22;2873;50.966;7.210;2023-07-20T03:15:32;19.60;99.90
5697;DHT22;2873;50.966;7.210;2023-07-20T03:17:58;19.60;99.90
5697;DHT22;2873;50.966;7.210;2023-07-20T03:20:24;19.50;99.90
5697;DHT22;2873;50.966;7.210;2023-07-20T03:22:49;19.50;99.90
5697;DHT22;2873;50.966;7.210;2023-07-20T03:25:15;19.50;99.90
5697;DHT22;2873;50.966;7.210;2023-07-20T03:27:40;19.50;99.90
5697;DHT22;2873;50.966;7.210;2023-07-20T03:30:06;19.50;99.90
5697;DHT22;2873;50.966;7.210;2023-07-20T03:32:32;19.50;99.90
5697;DHT22;2873;50.966;7.210;2023-07-20T03:34:58;19.40;99.90
5697;DHT22;2873;50.966;7.210;2023-07-20T03:37:23;19.40;99.90
5697;DHT22;2873;50.966;7.210;2023-07-20T03:39:49;19.40;99.90
5697;DHT22;2873;50.966;7.210;2023-07-20T03:42:15;19.40;99.90
5697;DHT22;2873;50.966;7.210;2023-07-20T03:44:40;19.40;99.90
5697;DHT22;2873;50.966;7.210;2023-07-20T03:47:06;19.40;99.90
5697;DHT22;2873;50.966;7.210;2023-07-20T03:49:32;19.40;99.90
5697;DHT22;2873;50.966;7.210;2023-07-20T03:51:57;19.30;99.90
5697;DHT22;2873;50.966;7.210;2023-07-20T03:54:23;19.30;99.90
5697;DHT22;2873;50.966;7.210;2023-07-20T03:56:48;19.30;99.90
5697;DHT22;2873;50.966;7.210;2023-07-20T03:59:14;19.30;99.90
5697;DHT22;2873;50.966;7.210;2023-07-20T04:01:40;19.40;99.90
5697;DHT22;2873;50.966;7.210;2023-07-20T04:04:07;19.40;99.90
5697;DHT22;2873;50.966;7.210;2023-07-20T04:06:33;19.40;99.90
5697;DHT22;2873;50.966;7.210;2023-07-20T04:08:59;19.30;99.90
5697;DHT22;2873;50.966;7.210;2023-07-20T04:11:24;19.30;99.90
5697;DHT22;2873;50.966;7.210;2023-07-20T04:13:50;19.30;99.90
5697;DHT22;2873;50.966;7.210;2023-07-20T04:16:15;19.40;99.90
5697;DHT22;2873;50.966;7.210;2023-07-20T04:18:41;19.40;99.90
5697;DHT22;2873;50.966;7.210;2023-07-20T04:21:08;19.40;99.90
5697;DHT22;2873;50.966;7.210;2023-07-20T04:23:34;19.40;99.90
5697;DHT22;2873;50.966;7.210;2023-07-20T04:26:00;19.40;99.90
5697;DHT22;2873;50.966;7.210;2023-07-20T04:28:26;19.40;99.90
5697;DHT22;2873;50.966;7.210;2023-07-20T04:30:52;19.40;99.90
5697;DHT22;2873;50.966;7.210;2023-07-20T04:33:18;19.30;99.90
5697;DHT22;2873;50.966;7.210;2023-07-20T04:35:54;19.30;99.90
5697;DHT22;2873;50.966;7.210;2023-07-20T04:38:20;19.30;99.90
5697;DHT22;2873;50.966;7.210;2023-07-20T04:40:47;19.40;99.90
5697;DHT22;2873;50.966;7.210;2023-07-20T04:43:14;19.40;99.90
5697;DHT22;2873;50.966;7.210;2023-07-20T04:45:39;19.40;99.90
5697;DHT22;2873;50.966;7.210;2023-07-20T04:48:09;19.40;99.90
5697;DHT22;2873;50.966;7.210;2023-07-20T04:50:35;19.40;99.90
5697;DHT22;2873;50.966;7.210;2023-07-20T04:53:02;19.40;99.90
5697;DHT22;2873;50.966;7.210;2023-07-20T04:55:27;19.40;99.90
5697;DHT22;2873;50.966;7.210;2023-07-20T04:57:53;19.40;99.90
5697;DHT22;2873;50.966;7.210;2023-07-20T05:00:19;19.30;99.90
5697;DHT22;2873;50.966;7.210;2023-07-20T05:02:45;19.40;99.90
5697;DHT22;2873;50.966;7.210;2023-07-20T05:05:13;19.40;99.90
5697;DHT22;2873;50.966;7.210;2023-07-20T05:07:38;19.40;99.90
5697;DHT22;2873;50.966;7.210;2023-07-20T05:10:04;19.40;99.90
5697;DHT22;2873;50.966;7.210;2023-07-20T05:12:30;19.30;99.90
5697;DHT22;2873;50.966;7.210;2023-07-20T05:14:55;19.40;99.90
5697;DHT22;2873;50.966;7.210;2023-07-20T05:17:21;19.40;99.90
5697;DHT22;2873;50.966;7.210;2023-07-20T05:19:46;19.40;99.90
5697;DHT22;2873;50.966;7.210;2023-07-20T05:22:13;19.40;99.90
5697;DHT22;2873;50.966;7.210;2023-07-20T05:24:39;19.40;99.90
5697;DHT22;2873;50.966;7.210;2023-07-20T05:27:05;19.40;99.90
5697;DHT22;2873;50.966;7.210;2023-07-20T05:29:30;19.40;99.90
5697;DHT22;2873;50.966;7.210;2023-07-20T05:31:57;19.40;99.90
5697;DHT22;2873;50.966;7.210;2023-07-20T05:34:22;19.40;99.90
5697;DHT22;2873;50.966;7.210;2023-07-20T05:37:07;19.40;99.90
5697;DHT22;2873;50.966;7.210;2023-07-20T05:39:33;19.40;99.90
5697;DHT22;2873;50.966;7.210;2023-07-20T05:41:59;19.40;99.90
5697;DHT22;2873;50.966;7.210;2023-07-20T05:44:24;19.40;99.90
5697;DHT22;2873;50.966;7.210;2023-07-20T05:46:50;19.40;99.90
5697;DHT22;2873;50.966;7.210;2023-07-20T05:49:15;19.40;99.90
5697;DHT22;2873;50.966;7.210;2023-07-20T05:51:41;19.40;99.90
5697;DHT22;2873;50.966;7.210;2023-07-20T05:54:06;19.40;99.90
5697;DHT22;2873;50.966;7.210;2023-07-20T05:56:32;19.40;99.90
5697;DHT22;2873;50.966;7.210;2023-07-20T05:58:57;19.40;99.90
5697;DHT22;2873;50.966;7.210;2023-07-20T06:01:23;19.50;99.90
5697;DHT22;2873;50.966;7.210;2023-07-20T06:03:52;19.50;99.90
5697;DHT22;2873;50.966;7.210;2023-07-20T06:06:17;19.50;99.90
5697;DHT22;2873;50.966;7.210;2023-07-20T06:08:43;19.50;99.90
5697;DHT22;2873;50.966;7.210;2023-07-20T06:11:08;19.50;99.90
5697;DHT22;2873;50.966;7.210;2023-07-20T06:13:34;19.50;99.90
5697;DHT22;2873;50.966;7.210;2023-07-20T06:15:59;19.50;99.90
5697;DHT22;2873;50.966;7.210;2023-07-20T06:18:25;19.50;99.90
5697;DHT22;2873;50.966;7.210;2023-07-20T06:20:51;19.60;99.90
5697;DHT22;2873;50.966;7.210;2023-07-20T06:23:20;19.50;99.90
5697;DHT22;2873;50.966;7.210;2023-07-20T06:25:46;19.60;99.90
5697;DHT22;2873;50.966;7.210;2023-07-20T06:28:12;19.60;99.90
5697;DHT22;2873;50.966;7.210;2023-07-20T06:30:37;19.50;99.90
5697;DHT22;2873;50.966;7.210;2023-07-20T06:33:03;19.50;99.90
5697;DHT22;2873;50.966;7.210;2023-07-20T06:35:28;19.50;99.90
5697;DHT22;2873;50.966;7.210;2023-07-20T06:37:54;19.50;99.90
5697;DHT22;2873;50.966;7.210;2023-07-20T06:40:20;19.60;99.90
5697;DHT22;2873;50.966;7.210;2023-07-20T06:42:46;19.50;99.90
5697;DHT22;2873;50.966;7.210;2023-07-20T06:45:12;19.60;99.90
5697;DHT22;2873;50.966;7.210;2023-07-20T06:47:39;19.60;99.90
5697;DHT22;2873;50.966;7.210;2023-07-20T06:50:06;19.60;99.90
5697;DHT22;2873;50.966;7.210;2023-07-20T06:52:31;19.70;99.90
5697;DHT22;2873;50.966;7.210;2023-07-20T06:54:57;19.70;99.90
5697;DHT22;2873;50.966;7.210;2023-07-20T06:57:22;19.70;99.90
5697;DHT22;2873;50.966;7.210;2023-07-20T06:59:48;19.80;99.90
5697;DHT22;2873;50.966;7.210;2023-07-20T07:02:14;19.80;99.90
5697;DHT22;2873;50.966;7.210;2023-07-20T07:04:39;19.90;99.90
5697;DHT22;2873;50.966;7.210;2023-07-20T07:07:05;19.90;99.90
5697;DHT22;2873;50.966;7.210;2023-07-20T07:09:31;19.90;99.90
5697;DHT22;2873;50.966;7.210;2023-07-20T07:11:56;20.00;99.90
5697;DHT22;2873;50.966;7.210;2023-07-20T07:14:22;20.10;99.90
5697;DHT22;2873;50.966;7.210;2023-07-20T07:16:48;20.20;99.90
5697;DHT22;2873;50.966;7.210;2023-07-20T07:19:13;20.20;99.90
5697;DHT22;2873;50.966;7.210;2023-07-20T07:21:39;20.20;99.90
5697;DHT22;2873;50.966;7.210;2023-07-20T07:24:05;20.20;99.90
5697;DHT22;2873;50.966;7.210;2023-07-20T07:26:32;20.20;99.90
5697;DHT22;2873;50.966;7.210;2023-07-20T07:28:58;20.30;99.90
5697;DHT22;2873;50.966;7.210;2023-07-20T07:31:25;20.30;99.90
5697;DHT22;2873;50.966;7.210;2023-07-20T07:33:51;20.30;99.90
5697;DHT22;2873;50.966;7.210;2023-07-20T07:36:16;20.30;99.90
5697;DHT22;2873;50.966;7.210;2023-07-20T07:38:42;20.40;99.90
5697;DHT22;2873;50.966;7.210;2023-07-20T07:41:08;20.50;99.90
5697;DHT22;2873;50.966;7.210;2023-07-20T07:43:34;20.50;99.90
5697;DHT22;2873;50.966;7.210;2023-07-20T07:46:00;20.50;99.90
5697;DHT22;2873;50.966;7.210;2023-07-20T07:48:27;20.50;99.90
5697;DHT22;2873;50.966;7.210;2023-07-20T07:50:54;20.60;99.90
5697;DHT22;2873;50.966;7.210;2023-07-20T07:53:19;20.60;99.90
5697;DHT22;2873;50.966;7.210;2023-07-20T07:55:47;20.70;99.90
5697;DHT22;2873;50.966;7.210;2023-07-20T07:58:12;20.70;99.90
5697;DHT22;2873;50.966;7.210;2023-07-20T08:00:39;20.60;99.90
5697;DHT22;2873;50.966;7.210;2023-07-20T08:03:06;20.70;99.90
5697;DHT22;2873;50.966;7.210;2023-07-20T08:05:31;20.70;99.90
5697;DHT22;2873;50.966;7.210;2023-07-20T08:07:57;20.70;99.90
5697;DHT22;2873;50.966;7.210;2023-07-20T08:10:23;20.70;99.90
5697;DHT22;2873;50.966;7.210;2023-07-20T08:12:48;20.70;99.90
5697;DHT22;2873;50.966;7.210;2023-07-20T08:15:14;20.80;99.90
5697;DHT22;2873;50.966;7.210;2023-07-20T08:17:41;20.70;99.90
5697;DHT22;2873;50.966;7.210;2023-07-20T08:20:07;20.80;99.90
5697;DHT22;2873;50.966;7.210;2023-07-20T08:22:35;20.80;99.90
5697;DHT22;2873;50.966;7.210;2023-07-20T08:25:00;20.90;99.90
5697;DHT22;2873;50.966;7.210;2023-07-20T08:27:26;20.90;99.90
5697;DHT22;2873;50.966;7.210;2023-07-20T08:29:51;20.90;99.90
5697;DHT22;2873;50.966;7.210;2023-07-20T08:32:17;21.00;99.90
5697;DHT22;2873;50.966;7.210;2023-07-20T08:34:42;21.10;99.90
5697;DHT22;2873;50.966;7.210;2023-07-20T08:37:08;21.10;99.90
5697;DHT22;2873;50.966;7.210;2023-07-20T08:39:35;21.10;99.90
5697;DHT22;2873;50.966;7.210;2023-07-20T08:42:01;21.10;99.90
5697;DHT22;2873;50.966;7.210;2023-07-20T08:44:29;21.10;99.90
5697;DHT22;2873;50.966;7.210;2023-07-20T08:46:56;21.10;99.90
5697;DHT22;2873;50.966;7.210;2023-07-20T08:49:22;21.10;99.90
5697;DHT22;2873;50.966;7.210;2023-07-20T08:51:48;21.40;99.90
5697;DHT22;2873;50.966;7.210;2023-07-20T08:54:14;21.20;99.90
5697;DHT22;2873;50.966;7.210;2023-07-20T08:56:42;21.30;99.90
5697;DHT22;2873;50.966;7.210;2023-07-20T08:59:08;21.30;99.90
5697;DHT22;2873;50.966;7.210;2023-07-20T09:01:35;21.40;99.90
5697;DHT22;2873;50.966;7.210;2023-07-20T09:04:03;21.40;99.90
5697;DHT22;2873;50.966;7.210;2023-07-20T09:06:28;21.40;99.90
5697;DHT22;2873;50.966;7.210;2023-07-20T09:08:54;21.40;99.90
5697;DHT22;2873;50.966;7.210;2023-07-20T09:11:20;21.50;99.90
5697;DHT22;2873;50.966;7.210;2023-07-20T09:13:46;21.50;99.90
5697;DHT22;2873;50.966;7.210;2023-07-20T09:16:15;21.60;99.90
5697;DHT22;2873;50.966;7.210;2023-07-20T09:18:41;21.60;99.90
5697;DHT22;2873;50.966;7.210;2023-07-20T09:21:07;21.70;99.90
5697;DHT22;2873;50.966;7.210;2023-07-20T09:23:37;21.80;99.90
5697;DHT22;2873;50.966;7.210;2023-07-20T09:26:14;21.90;99.90
5697;DHT22;2873;50.966;7.210;2023-07-20T09:28:48;21.80;99.90
5697;DHT22;2873;50.966;7.210;2023-07-20T09:31:19;21.90;99.90
5697;DHT22;2873;50.966;7.210;2023-07-20T09:33:45;22.00;99.90
5697;DHT22;2873;50.966;7.210;2023-07-20T09:36:10;22.00;99.90
5697;DHT22;2873;50.966;7.210;2023-07-20T09:38:42;22.00;99.90
5697;DHT22;2873;50.966;7.210;2023-07-20T09:41:14;22.00;99.90
5697;DHT22;2873;50.966;7.210;2023-07-20T09:43:43;22.10;99.90
5697;DHT22;2873;50.966;7.210;2023-07-20T09:46:10;22.20;99.90
5697;DHT22;2873;50.966;7.210;2023-07-20T09:48:36;22.20;99.90
5697;DHT22;2873;50.966;7.210;2023-07-20T09:51:02;22.20;99.90
5697;DHT22;2873;50.966;7.210;2023-07-20T09:53:30;22.20;99.90
5697;DHT22;2873;50.966;7.210;2023-07-20T09:55:57;22.20;99.90
5697;DHT22;2873;50.966;7.210;2023-07-20T09:58:26;22.30;99.90
5697;DHT22;2873;50.966;7.210;2023-07-20T10:00:52;22.40;99.90
5697;DHT22;2873;50.966;7.210;2023-07-20T10:03:19;22.50;99.90
5697;DHT22;2873;50.966;7.210;2023-07-20T10:06:06;22.50;99.90
5697;DHT22;2873;50.966;7.210;2023-07-20T10:08:37;22.60;99.90
5697;DHT22;2873;50.966;7.210;2023-07-20T10:11:05;22.70;99.90
5697;DHT22;2873;50.966;7.210;2023-07-20T10:13:38;22.70;99.90
5697;DHT22;2873;50.966;7.210;2023-07-20T10:16:11;22.80;99.90
5697;DHT22;2873;50.966;7.210;2023-07-20T10:21:17;22.80;99.90
5697;DHT22;2873;50.966;7.210;2023-07-20T10:23:43;22.90;99.90
5697;DHT22;2873;50.966;7.210;2023-07-20T10:26:09;23.00;99.90
5697;DHT22;2873;50.966;7.210;2023-07-20T10:28:36;23.00;99.90
5697;DHT22;2873;50.966;7.210;2023-07-20T10:31:02;23.20;99.90
5697;DHT22;2873;50.966;7.210;2023-07-20T10:33:28;23.00;99.90
5697;DHT22;2873;50.966;7.210;2023-07-20T10:36:00;23.10;99.90
5697;DHT22;2873;50.966;7.210;2023-07-20T10:38:39;23.10;99.90
5697;DHT22;2873;50.966;7.210;2023-07-20T10:43:45;23.30;99.90
5697;DHT22;2873;50.966;7.210;2023-07-20T10:46:12;23.30;99.90
5697;DHT22;2873;50.966;7.210;2023-07-20T10:49:02;23.30;99.90
5697;DHT22;2873;50.966;7.210;2023-07-20T10:51:28;23.40;99.90
5697;DHT22;2873;50.966;7.210;2023-07-20T10:53:57;23.40;99.90
5697;DHT22;2873;50.966;7.210;2023-07-20T10:56:27;23.50;99.90
5697;DHT22;2873;50.966;7.210;2023-07-20T10:59:00;23.60;99.90
5697;DHT22;2873;50.966;7.210;2023-07-20T11:01:30;23.70;99.90
5697;DHT22;2873;50.966;7.210;2023-07-20T11:03:58;23.70;99.90
5697;DHT22;2873;50.966;7.210;2023-07-20T11:09:11;23.90;99.90
5697;DHT22;2873;50.966;7.210;2023-07-20T11:11:44;24.00;99.90
5697;DHT22;2873;50.966;7.210;2023-07-20T11:14:20;23.90;99.90
5697;DHT22;2873;50.966;7.210;2023-07-20T11:16:47;24.00;99.90
5697;DHT22;2873;50.966;7.210;2023-07-20T11:19:16;24.10;99.90
5697;DHT22;2873;50.966;7.210;2023-07-20T11:21:43;24.10;99.90
5697;DHT22;2873;50.966;7.210;2023-07-20T11:24:09;24.00;99.90
5697;DHT22;2873;50.966;7.210;2023-07-20T11:26:45;24.00;99.90
5697;DHT22;2873;50.966;7.210;2023-07-20T11:29:12;24.10;99.90
5697;DHT22;2873;50.966;7.210;2023-07-20T11:31:39;24.10;99.90
5697;DHT22;2873;50.966;7.210;2023-07-20T11:34:05;24.20;99.90
5697;DHT22;2873;50.966;7.210;2023-07-20T11:36:31;24.20;99.90
5697;DHT22;2873;50.966;7.210;2023-07-20T11:38:58;24.10;99.90
5697;DHT22;2873;50.966;7.210;2023-07-20T11:41:25;24.10;99.90
5697;DHT22;2873;50.966;7.210;2023-07-20T11:43:51;24.10;99.90
5697;DHT22;2873;50.966;7.210;2023-07-20T11:46:17;24.10;99.90
5697;DHT22;2873;50.966;7.210;2023-07-20T11:48:42;24.10;99.90
5697;DHT22;2873;50.966;7.210;2023-07-20T11:51:16;24.10;99.90
5697;DHT22;2873;50.966;7.210;2023-07-20T11:53:44;24.10;99.90
5697;DHT22;2873;50.966;7.210;2023-07-20T11:56:11;24.00;99.90
5697;DHT22;2873;50.966;7.210;2023-07-20T11:58:43;24.00;99.90
5697;DHT22;2873;50.966;7.210;2023-07-20T12:01:09;24.00;99.90
5697;DHT22;2873;50.966;7.210;2023-07-20T12:03:36;24.00;99.90
5697;DHT22;2873;50.966;7.210;2023-07-20T12:06:09;24.10;99.90
5697;DHT22;2873;50.966;7.210;2023-07-20T12:08:35;24.10;99.90
5697;DHT22;2873;50.966;7.210;2023-07-20T12:11:03;24.10;99.90
5697;DHT22;2873;50.966;7.210;2023-07-20T12:13:39;24.10;99.90
5697;DHT22;2873;50.966;7.210;2023-07-20T12:16:14;24.20;99.90
5697;DHT22;2873;50.966;7.210;2023-07-20T12:18:43;24.20;99.90
5697;DHT22;2873;50.966;7.210;2023-07-20T12:21:10;24.30;99.90
5697;DHT22;2873;50.966;7.210;2023-07-20T12:23:39;24.40;99.90
5697;DHT22;2873;50.966;7.210;2023-07-20T12:26:09;24.40;99.90
5697;DHT22;2873;50.966;7.210;2023-07-20T12:28:42;24.60;99.90
5697;DHT22;2873;50.966;7.210;2023-07-20T12:31:09;24.60;99.90
5697;DHT22;2873;50.966;7.210;2023-07-20T12:33:36;24.70;99.90
5697;DHT22;2873;50.966;7.210;2023-07-20T12:36:02;24.60;99.90
5697;DHT22;2873;50.966;7.210;2023-07-20T12:38:28;24.60;99.90
5697;DHT22;2873;50.966;7.210;2023-07-20T12:40:54;24.60;99.90
5697;DHT22;2873;50.966;7.210;2023-07-20T12:43:22;24.60;99.90
5697;DHT22;2873;50.966;7.210;2023-07-20T12:45:48;24.50;99.90
5697;DHT22;2873;50.966;7.210;2023-07-20T12:48:14;24.50;99.90
5697;DHT22;2873;50.966;7.210;2023-07-20T12:50:39;24.50;99.90
5697;DHT22;2873;50.966;7.210;2023-07-20T12:53:05;24.50;99.90
5697;DHT22;2873;50.966;7.210;2023-07-20T12:55:31;24.40;99.90
5697;DHT22;2873;50.966;7.210;2023-07-20T12:57:56;24.40;99.90
5697;DHT22;2873;50.966;7.210;2023-07-20T13:00:22;24.50;99.90
5697;DHT22;2873;50.966;7.210;2023-07-20T13:02:49;24.40;99.90
5697;DHT22;2873;50.966;7.210;2023-07-20T13:05:15;24.30;99.90
5697;DHT22;2873;50.966;7.210;2023-07-20T13:07:41;24.30;99.90
5697;DHT22;2873;50.966;7.210;2023-07-20T13:10:08;24.30;99.90
5697;DHT22;2873;50.966;7.210;2023-07-20T13:12:34;24.20;99.90
5697;DHT22;2873;50.966;7.210;2023-07-20T13:15:02;24.10;99.90
5697;DHT22;2873;50.966;7.210;2023-07-20T13:17:31;24.10;99.90
5697;DHT22;2873;50.966;7.210;2023-07-20T13:19:57;24.10;99.90
5697;DHT22;2873;50.966;7.210;2023-07-20T13:22:22;24.00;99.90
5697;DHT22;2873;50.966;7.210;2023-07-20T13:24:48;24.10;99.90
5697;DHT22;2873;50.966;7.210;2023-07-20T13:27:16;24.10;99.90
5697;DHT22;2873;50.966;7.210;2023-07-20T13:29:41;24.10;99.90
5697;DHT22;2873;50.966;7.210;2023-07-20T13:32:08;24.10;99.90
5697;DHT22;2873;50.966;7.210;2023-07-20T13:34:36;24.10;99.90
5697;DHT22;2873;50.966;7.210;2023-07-20T13:37:02;24.10;99.90
5697;DHT22;2873;50.966;7.210;2023-07-20T13:39:28;24.10;99.90
5697;DHT22;2873;50.966;7.210;2023-07-20T13:41:54;24.20;99.90
5697;DHT22;2873;50.966;7.210;2023-07-20T13:44:22;24.30;99.90
5697;DHT22;2873;50.966;7.210;2023-07-20T13:46:48;24.40;99.90
5697;DHT22;2873;50.966;7.210;2023-07-20T13:49:14;24.40;99.90
5697;DHT22;2873;50.966;7.210;2023-07-20T13:51:41;24.50;99.90
5697;DHT22;2873;50.966;7.210;2023-07-20T13:54:07;24.50;99.90
5697;DHT22;2873;50.966;7.210;2023-07-20T13:56:32;24.50;99.90
5697;DHT22;2873;50.966;7.210;2023-07-20T13:58:58;24.50;99.90
5697;DHT22;2873;50.966;7.210;2023-07-20T14:01:23;24.70;99.90
5697;DHT22;2873;50.966;7.210;2023-07-20T14:03:50;24.70;99.90
5697;DHT22;2873;50.966;7.210;2023-07-20T14:06:16;24.70;99.90
5697;DHT22;2873;50.966;7.210;2023-07-20T14:08:43;24.60;99.90
5697;DHT22;2873;50.966;7.210;2023-07-20T14:11:15;24.60;99.90
5697;DHT22;2873;50.966;7.210;2023-07-20T14:13:40;24.50;99.90
5697;DHT22;2873;50.966;7.210;2023-07-20T14:16:06;24.50;99.90
5697;DHT22;2873;50.966;7.210;2023-07-20T14:18:33;24.50;99.90
5697;DHT22;2873;50.966;7.210;2023-07-20T14:20:58;24.50;99.90
5697;DHT22;2873;50.966;7.210;2023-07-20T14:23:24;24.60;99.90
5697;DHT22;2873;50.966;7.210;2023-07-20T14:25:50;24.70;99.90
5697;DHT22;2873;50.966;7.210;2023-07-20T14:28:15;24.70;99.90
5697;DHT22;2873;50.966;7.210;2023-07-20T14:30:42;24.70;99.90
5697;DHT22;2873;50.966;7.210;2023-07-20T14:33:07;24.80;99.90
5697;DHT22;2873;50.966;7.210;2023-07-20T14:35:33;24.90;99.90
5697;DHT22;2873;50.966;7.210;2023-07-20T14:37:59;25.00;99.90
5697;DHT22;2873;50.966;7.210;2023-07-20T14:40:25;25.10;99.90
5697;DHT22;2873;50.966;7.210;2023-07-20T14:42:50;25.20;99.90
5697;DHT22;2873;50.966;7.210;2023-07-20T14:45:17;25.20;99.30
5697;DHT22;2873;50.966;7.210;2023-07-20T14:47:43;25.30;99.70
5697;DHT22;2873;50.966;7.210;2023-07-20T14:50:09;25.40;99.50
5697;DHT22;2873;50.966;7.210;2023-07-20T14:52:35;25.50;99.60
5697;DHT22;2873;50.966;7.210;2023-07-20T14:55:00;25.60;99.60
5697;DHT22;2873;50.966;7.210;2023-07-20T14:57:26;25.70;98.70
5697;DHT22;2873;50.966;7.210;2023-07-20T14:59:52;25.80;98.80
5697;DHT22;2873;50.966;7.210;2023-07-20T15:02:18;25.80;98.00
5697;DHT22;2873;50.966;7.210;2023-07-20T15:04:48;25.80;97.30
5697;DHT22;2873;50.966;7.210;2023-07-20T15:07:18;25.90;97.50
5697;DHT22;2873;50.966;7.210;2023-07-20T15:09:44;26.00;97.30
5697;DHT22;2873;50.966;7.210;2023-07-20T15:12:10;26.00;97.90
5697;DHT22;2873;50.966;7.210;2023-07-20T15:14:40;26.00;98.40
5697;DHT22;2873;50.966;7.210;2023-07-20T15:17:07;26.10;98.70
5697;DHT22;2873;50.966;7.210;2023-07-20T15:19:32;26.10;98.60
5697;DHT22;2873;50.966;7.210;2023-07-20T15:21:59;26.20;98.00
5697;DHT22;2873;50.966;7.210;2023-07-20T15:24:25;26.20;96.70
5697;DHT22;2873;50.966;7.210;2023-07-20T15:26:51;26.20;95.70
5697;DHT22;2873;50.966;7.210;2023-07-20T15:29:16;26.10;96.00
5697;DHT22;2873;50.966;7.210;2023-07-20T15:31:42;26.20;97.20
5697;DHT22;2873;50.966;7.210;2023-07-20T15:34:07;26.20;97.20
5697;DHT22;2873;50.966;7.210;2023-07-20T15:36:33;26.30;96.10
5697;DHT22;2873;50.966;7.210;2023-07-20T15:38:58;26.20;96.90
5697;DHT22;2873;50.966;7.210;2023-07-20T15:41:24;26.20;96.70
5697;DHT22;2873;50.966;7.210;2023-07-20T15:43:49;26.20;96.60
5697;DHT22;2873;50.966;7.210;2023-07-20T15:48:47;26.10;96.10
5697;DHT22;2873;50.966;7.210;2023-07-20T15:51:12;26.10;96.10
5697;DHT22;2873;50.966;7.210;2023-07-20T15:53:38;26.10;97.00
5697;DHT22;2873;50.966;7.210;2023-07-20T15:56:04;26.10;96.90
5697;DHT22;2873;50.966;7.210;2023-07-20T15:58:29;26.10;96.10
5697;DHT22;2873;50.966;7.210;2023-07-20T16:00:56;26.10;97.00
5697;DHT22;2873;50.966;7.210;2023-07-20T16:03:25;26.10;98.00
5697;DHT22;2873;50.966;7.210;2023-07-20T16:05:54;26.10;98.30
5697;DHT22;2873;50.966;7.210;2023-07-20T16:08:19;26.10;98.10
5697;DHT22;2873;50.966;7.210;2023-07-20T16:10:45;26.10;97.80
5697;DHT22;2873;50.966;7.210;2023-07-20T16:13:10;26.00;97.80
5697;DHT22;2873;50.966;7.210;2023-07-20T16:15:36;26.00;98.40
5697;DHT22;2873;50.966;7.210;2023-07-20T16:18:01;26.10;98.70